Time;durP1;ratioP1;P1;durP2;ratioP2;P2;SDS_P1;SDS_P2;PMS_P1;PMS_P2;Temp;Humidity;BMP_temperature;BMP_pressure;BME280_temperature;BME280_humidity;BME280_pressure;Samples;Min_cycle;Max_cycle;Signal;HPM_P1;HPM_P2
2022/06/15 00:02:00;;;;;;;6.93;4.30;;;;;;;;;;5092241;28;20048;-64
2022/06/15 00:04:29;;;;;;;6.22;3.78;;;;;;;;;;5096217;28;20105;-64
2022/06/15 00:06:55;;;;;;;6.00;3.95;;;;;;;;;;5096549;28;20036;-64
2022/06/15 00:09:21;;;;;;;5.85;3.05;;;;;;;;;;5095593;28;20044;-64
2022/06/15 00:11:47;;;;;;;5.28;2.70;;;;;;;;;;5096192;28;20055;-64
2022/06/15 00:14:16;;;;;;;4.53;2.00;;;;;;;;;;5091801;28;20055;-64
2022/06/15 00:16:43;;;;;;;2.78;1.55;;;;;;;;;;5096091;28;20057;-64
2022/06/15 00:19:10;;;;;;;3.75;2.00;;;;;;;;;;5097338;28;20048;-64
2022/06/15 00:21:36;;;;;;;5.10;2.20;;;;;;;;;;5099199;28;20115;-64
2022/06/15 00:24:03;;;;;;;3.80;2.20;;;;;;;;;;5097647;28;20138;-64
2022/06/15 00:26:29;;;;;;;3.92;2.03;;;;;;;;;;5094675;28;20040;-64
2022/06/15 00:28:56;;;;;;;3.40;1.90;;;;;;;;;;5094285;28;20407;-64
2022/06/15 00:31:23;;;;;;;5.32;2.85;;;;;;;;;;5092572;28;20047;-64
2022/06/15 00:33:49;;;;;;;3.72;2.60;;;;;;;;;;5101333;28;20526;-64
2022/06/15 00:36:18;;;;;;;9.00;2.83;;;;;;;;;;5099192;28;20058;-64
2022/06/15 00:38:45;;;;;;;3.90;2.60;;;;;;;;;;5096944;28;20050;-64
2022/06/15 00:41:13;;;;;;;2.60;1.70;;;;;;;;;;5098007;28;20043;-64
2022/06/15 00:43:41;;;;;;;2.95;1.95;;;;;;;;;;5094410;28;20036;-64
2022/06/15 00:46:15;;;;;;;2.58;1.73;;;;;;;;;;5088540;28;20534;-64
2022/06/15 00:48:42;;;;;;;2.97;1.63;;;;;;;;;;5069639;28;20037;-64
2022/06/15 00:51:08;;;;;;;2.50;1.50;;;;;;;;;;5066894;28;21644;-64
2022/06/15 00:53:34;;;;;;;2.60;1.35;;;;;;;;;;5077023;28;20044;-64
2022/06/15 00:56:02;;;;;;;4.70;1.10;;;;;;;;;;5080386;28;20036;-64
2022/06/15 00:58:28;;;;;;;1.70;1.08;;;;;;;;;;5078343;28;20391;-64
2022/06/15 01:00:56;;;;;;;2.10;1.23;;;;;;;;;;5079253;28;20050;-64
2022/06/15 01:03:23;;;;;;;1.65;1.13;;;;;;;;;;5076090;28;20383;-63
2022/06/15 01:05:57;;;;;;;3.38;1.48;;;;;;;;;;5077378;28;20033;-64
2022/06/15 01:08:23;;;;;;;2.75;1.42;;;;;;;;;;5075977;28;20032;-64
2022/06/15 01:10:59;;;;;;;3.22;1.67;;;;;;;;;;5076346;28;20079;-63
2022/06/15 01:13:42;;;;;;;4.68;2.42;;;;;;;;;;5075623;28;20050;-64
2022/06/15 01:16:17;;;;;;;3.23;1.47;;;;;;;;;;5079852;28;20052;-64
2022/06/15 01:18:53;;;;;;;4.30;1.90;;;;;;;;;;5078067;28;20344;-63
2022/06/15 01:21:31;;;;;;;5.97;2.65;;;;;;;;;;5071048;28;20520;-64
2022/06/15 01:24:03;;;;;;;6.90;3.33;;;;;;;;;;5079146;28;20046;-64
2022/06/15 01:26:51;;;;;;;7.85;4.85;;;;;;;;;;5078202;28;20403;-64
2022/06/15 01:29:17;;;;;;;9.73;4.10;;;;;;;;;;5077316;28;20052;-64
2022/06/15 01:31:43;;;;;;;7.78;3.80;;;;;;;;;;5078640;28;20171;-64
2022/06/15 01:34:10;;;;;;;5.25;1.80;;;;;;;;;;5079704;28;20059;-64
2022/06/15 01:36:42;;;;;;;5.35;2.80;;;;;;;;;;5080892;28;20036;-64
2022/06/15 01:39:13;;;;;;;4.60;2.45;;;;;;;;;;5081125;28;20044;-64
2022/06/15 01:41:44;;;;;;;7.03;2.85;;;;;;;;;;5076935;28;20090;-64
2022/06/15 01:44:15;;;;;;;9.00;4.45;;;;;;;;;;5076987;28;20060;-64
2022/06/15 01:46:44;;;;;;;11.57;7.57;;;;;;;;;;5071907;28;20048;-64
2022/06/15 01:49:15;;;;;;;17.25;10.48;;;;;;;;;;5100039;28;20074;-64
2022/06/15 01:51:43;;;;;;;16.05;11.98;;;;;;;;;;5103481;28;20122;-64
2022/06/15 01:54:11;;;;;;;20.88;12.07;;;;;;;;;;5081216;28;20039;-64
2022/06/15 01:56:39;;;;;;;19.48;12.20;;;;;;;;;;5080434;28;20051;-64
2022/06/15 01:59:13;;;;;;;17.98;11.82;;;;;;;;;;5100889;28;20040;-64
2022/06/15 02:01:53;;;;;;;12.77;9.32;;;;;;;;;;5100986;28;20078;-64
2022/06/15 02:04:28;;;;;;;13.55;7.68;;;;;;;;;;5100667;28;20390;-64
2022/06/15 02:07:07;;;;;;;9.98;6.97;;;;;;;;;;5093324;28;20051;-64
2022/06/15 02:09:37;;;;;;;9.02;5.93;;;;;;;;;;5097816;28;20066;-64
2022/06/15 02:12:05;;;;;;;11.85;7.55;;;;;;;;;;5092557;28;20522;-63
2022/06/15 02:14:34;;;;;;;9.32;5.05;;;;;;;;;;5099069;28;20031;-64
2022/06/15 02:17:03;;;;;;;6.85;3.90;;;;;;;;;;5096872;28;20115;-64
2022/06/15 02:19:33;;;;;;;8.73;4.70;;;;;;;;;;5084896;28;20042;-64
2022/06/15 02:22:03;;;;;;;5.78;2.88;;;;;;;;;;5080709;28;20114;-64
2022/06/15 02:24:30;;;;;;;5.65;2.70;;;;;;;;;;5081244;28;20070;-64
2022/06/15 02:26:57;;;;;;;3.40;1.90;;;;;;;;;;5081060;28;20039;-64
2022/06/15 02:29:24;;;;;;;5.35;2.95;;;;;;;;;;5098061;28;20118;-64
2022/06/15 02:31:50;;;;;;;5.05;3.15;;;;;;;;;;5098332;28;20509;-64
2022/06/15 02:34:16;;;;;;;6.18;3.42;;;;;;;;;;5100274;28;20032;-64
2022/06/15 02:36:43;;;;;;;4.60;3.08;;;;;;;;;;5099937;28;20039;-64
2022/06/15 02:39:11;;;;;;;4.90;3.63;;;;;;;;;;5099572;28;20050;-64
2022/06/15 02:41:37;;;;;;;8.25;3.65;;;;;;;;;;5100692;28;20062;-64
2022/06/15 02:44:04;;;;;;;4.93;3.13;;;;;;;;;;5098635;28;20055;-64
2022/06/15 02:46:32;;;;;;;4.53;3.28;;;;;;;;;;5096135;28;20104;-64
2022/06/15 02:48:59;;;;;;;5.57;3.58;;;;;;;;;;5097875;28;20050;-64
2022/06/15 02:51:33;;;;;;;4.47;3.08;;;;;;;;;;5084976;28;21671;-64
2022/06/15 02:54:01;;;;;;;8.38;2.70;;;;;;;;;;5079347;28;20051;-64
2022/06/15 02:56:28;;;;;;;5.28;2.60;;;;;;;;;;5100434;28;20145;-64
2022/06/15 02:58:57;;;;;;;3.50;2.20;;;;;;;;;;5084750;28;20044;-64
2022/06/15 03:01:23;;;;;;;3.67;2.20;;;;;;;;;;5102120;28;20044;-64
2022/06/15 03:03:50;;;;;;;4.13;2.33;;;;;;;;;;5086389;28;20058;-64
2022/06/15 03:06:17;;;;;;;4.18;2.17;;;;;;;;;;5092328;28;20414;-64
2022/06/15 03:08:43;;;;;;;4.20;2.58;;;;;;;;;;5099081;28;20032;-64
2022/06/15 03:11:10;;;;;;;3.15;1.88;;;;;;;;;;5100526;28;20044;-64
2022/06/15 03:13:37;;;;;;;4.25;2.00;;;;;;;;;;5097380;28;20040;-64
2022/06/15 03:16:04;;;;;;;5.20;2.70;;;;;;;;;;5096635;28;20039;-64
2022/06/15 03:18:30;;;;;;;5.45;2.80;;;;;;;;;;5082486;28;20062;-64
2022/06/15 03:20:58;;;;;;;6.55;3.80;;;;;;;;;;5093443;28;20121;-64
2022/06/15 03:23:25;;;;;;;5.38;3.28;;;;;;;;;;5098091;28;20039;-64
2022/06/15 03:25:53;;;;;;;4.60;3.25;;;;;;;;;;5097497;28;20176;-64
2022/06/15 03:28:19;;;;;;;4.88;3.08;;;;;;;;;;5089082;28;20058;-64
2022/06/15 03:30:45;;;;;;;6.07;4.00;;;;;;;;;;5098022;28;20043;-64
2022/06/15 03:33:11;;;;;;;7.07;4.38;;;;;;;;;;5098217;28;20118;-64
2022/06/15 03:35:39;;;;;;;7.32;4.82;;;;;;;;;;5093083;28;20047;-64
2022/06/15 03:38:08;;;;;;;6.93;4.72;;;;;;;;;;5095152;28;20667;-64
2022/06/15 03:40:35;;;;;;;6.82;3.70;;;;;;;;;;5100692;28;20051;-64
2022/06/15 03:43:02;;;;;;;6.25;4.47;;;;;;;;;;5082547;28;20358;-64
2022/06/15 03:45:28;;;;;;;8.07;4.93;;;;;;;;;;5097877;28;20044;-64
2022/06/15 03:47:55;;;;;;;11.35;5.80;;;;;;;;;;5100608;28;20142;-64
2022/06/15 03:50:23;;;;;;;7.35;5.35;;;;;;;;;;5097932;28;20115;-64
2022/06/15 03:52:49;;;;;;;10.55;5.80;;;;;;;;;;5097832;28;20048;-64
2022/06/15 03:55:16;;;;;;;8.38;6.32;;;;;;;;;;5089636;28;20044;-64
2022/06/15 03:57:42;;;;;;;8.75;6.18;;;;;;;;;;5099330;28;20043;-64
2022/06/15 04:00:11;;;;;;;7.97;5.75;;;;;;;;;;5092571;28;20055;-64
2022/06/15 04:02:37;;;;;;;10.18;6.07;;;;;;;;;;5097188;28;20044;-64
2022/06/15 04:05:03;;;;;;;9.02;5.97;;;;;;;;;;5080190;28;20134;-64
2022/06/15 04:10:15;;;;;;;12.10;8.43;;;;;;;;;;5096552;28;20051;-64
2022/06/15 04:12:43;;;;;;;13.60;8.73;;;;;;;;;;5095804;28;20174;-64
2022/06/15 04:15:10;;;;;;;12.25;8.90;;;;;;;;;;5082082;28;20092;-64
2022/06/15 04:17:37;;;;;;;13.55;7.88;;;;;;;;;;5097798;28;20051;-64
2022/06/15 04:22:48;;;;;;;16.27;11.95;;;;;;;;;;5100959;28;20131;-64
2022/06/15 04:25:14;;;;;;;20.58;12.10;;;;;;;;;;5101162;28;20052;-64
2022/06/15 04:27:41;;;;;;;12.05;9.50;;;;;;;;;;5082453;28;20095;-64
2022/06/15 04:30:07;;;;;;;12.93;9.88;;;;;;;;;;5076533;28;20051;-64
2022/06/15 04:32:34;;;;;;;17.52;10.93;;;;;;;;;;5062594;28;20472;-64
2022/06/15 04:35:00;;;;;;;15.75;10.32;;;;;;;;;;5078156;28;20069;-63
2022/06/15 04:37:26;;;;;;;16.25;10.75;;;;;;;;;;5099250;28;20043;-64
2022/06/15 04:39:52;;;;;;;18.95;11.30;;;;;;;;;;5082132;28;20126;-64
2022/06/15 04:42:19;;;;;;;18.77;11.07;;;;;;;;;;5096465;28;20046;-64
2022/06/15 04:44:45;;;;;;;20.77;12.45;;;;;;;;;;5098425;28;20040;-64
2022/06/15 04:47:11;;;;;;;22.42;12.32;;;;;;;;;;5100401;28;20718;-65
2022/06/15 04:49:37;;;;;;;19.48;11.73;;;;;;;;;;5099609;28;20087;-64
2022/06/15 04:52:04;;;;;;;17.15;11.77;;;;;;;;;;5078741;28;20070;-64
2022/06/15 04:54:30;;;;;;;17.58;11.80;;;;;;;;;;5082014;28;20047;-64
2022/06/15 04:56:57;;;;;;;18.58;11.85;;;;;;;;;;5077169;28;20046;-64
2022/06/15 04:59:23;;;;;;;17.85;12.32;;;;;;;;;;5077326;28;20094;-64
2022/06/15 05:01:49;;;;;;;17.83;12.88;;;;;;;;;;5096350;28;20047;-64
2022/06/15 05:04:16;;;;;;;17.73;12.00;;;;;;;;;;5093605;28;20055;-64
2022/06/15 05:06:42;;;;;;;21.27;13.73;;;;;;;;;;5076596;28;20383;-64
2022/06/15 05:09:11;;;;;;;17.30;12.65;;;;;;;;;;5099690;28;20052;-64
2022/06/15 05:11:37;;;;;;;19.02;13.20;;;;;;;;;;5078181;28;20043;-64
2022/06/15 05:14:03;;;;;;;19.80;13.20;;;;;;;;;;5078213;28;20132;-65
2022/06/15 05:16:29;;;;;;;24.70;12.88;;;;;;;;;;5097113;28;20035;-64
2022/06/15 05:18:56;;;;;;;19.00;12.13;;;;;;;;;;5076500;28;20047;-64
2022/06/15 05:21:22;;;;;;;19.90;12.55;;;;;;;;;;5095162;28;20357;-64
2022/06/15 05:23:48;;;;;;;16.98;12.13;;;;;;;;;;5096144;28;20071;-64
2022/06/15 05:26:14;;;;;;;17.42;10.55;;;;;;;;;;5103841;28;20040;-64
2022/06/15 05:28:44;;;;;;;14.60;10.38;;;;;;;;;;5083674;28;20061;-64
2022/06/15 05:31:13;;;;;;;13.93;9.88;;;;;;;;;;5100944;28;20054;-64
2022/06/15 05:33:40;;;;;;;21.08;9.77;;;;;;;;;;5096711;27;20050;-64
2022/06/15 05:36:08;;;;;;;15.23;9.13;;;;;;;;;;5101387;28;20051;-64
2022/06/15 05:38:35;;;;;;;19.00;8.88;;;;;;;;;;5080818;28;20437;-64
2022/06/15 05:41:01;;;;;;;13.13;8.43;;;;;;;;;;5102113;28;20493;-64
2022/06/15 05:43:28;;;;;;;14.10;8.52;;;;;;;;;;5100459;28;20048;-64
2022/06/15 05:45:55;;;;;;;16.20;7.70;;;;;;;;;;5103254;28;20487;-65
2022/06/15 05:48:21;;;;;;;15.55;6.72;;;;;;;;;;5101783;28;20101;-64
2022/06/15 05:50:47;;;;;;;19.30;7.75;;;;;;;;;;5096222;28;20040;-64
2022/06/15 05:53:13;;;;;;;12.43;7.22;;;;;;;;;;5102837;28;20055;-64
2022/06/15 05:55:40;;;;;;;15.10;5.88;;;;;;;;;;5102013;28;20039;-64
2022/06/15 05:58:06;;;;;;;11.18;7.13;;;;;;;;;;5099508;28;20464;-64
2022/06/15 06:00:33;;;;;;;15.30;7.15;;;;;;;;;;5077435;28;20044;-63
2022/06/15 06:02:59;;;;;;;15.20;6.63;;;;;;;;;;5096268;28;20044;-63
2022/06/15 06:05:25;;;;;;;15.45;6.28;;;;;;;;;;5098560;28;20039;-64
2022/06/15 06:07:52;;;;;;;11.50;5.70;;;;;;;;;;5102489;28;20089;-64
2022/06/15 06:10:18;;;;;;;15.70;6.32;;;;;;;;;;5100227;28;20137;-63
2022/06/15 06:12:44;;;;;;;13.65;5.68;;;;;;;;;;5099632;28;20048;-63
2022/06/15 06:15:10;;;;;;;12.13;5.60;;;;;;;;;;5102066;28;20036;-63
2022/06/15 06:17:37;;;;;;;16.42;5.47;;;;;;;;;;5102705;28;20467;-63
2022/06/15 06:20:03;;;;;;;12.35;5.82;;;;;;;;;;5104677;28;20050;-63
2022/06/15 06:22:29;;;;;;;12.05;5.97;;;;;;;;;;5101008;28;20032;-64
2022/06/15 06:24:55;;;;;;;14.25;5.35;;;;;;;;;;5102696;28;20043;-63
2022/06/15 06:27:22;;;;;;;13.93;5.03;;;;;;;;;;5104279;28;20039;-63
2022/06/15 06:29:48;;;;;;;11.30;5.30;;;;;;;;;;5102712;28;20040;-63
2022/06/15 06:32:15;;;;;;;11.65;6.18;;;;;;;;;;5100723;28;20428;-64
2022/06/15 06:34:41;;;;;;;14.43;6.35;;;;;;;;;;5103112;28;20119;-64
2022/06/15 06:37:08;;;;;;;11.02;5.85;;;;;;;;;;5097657;28;20044;-64
2022/06/15 06:39:34;;;;;;;11.82;5.57;;;;;;;;;;5103872;28;20151;-64
2022/06/15 06:42:02;;;;;;;10.02;4.88;;;;;;;;;;5103021;28;20509;-64
2022/06/15 06:44:28;;;;;;;10.93;5.97;;;;;;;;;;5103772;28;20058;-64
2022/06/15 06:46:55;;;;;;;15.15;6.25;;;;;;;;;;5099838;28;20495;-64
2022/06/15 06:49:22;;;;;;;10.27;5.60;;;;;;;;;;5103336;28;20059;-64
2022/06/15 06:51:48;;;;;;;14.13;5.78;;;;;;;;;;5097609;28;20050;-64
2022/06/15 06:54:16;;;;;;;13.82;5.68;;;;;;;;;;5104334;28;20483;-64
2022/06/15 06:56:43;;;;;;;12.02;5.38;;;;;;;;;;5098345;28;20047;-64
2022/06/15 06:59:11;;;;;;;11.40;5.50;;;;;;;;;;5099889;28;20039;-63
2022/06/15 07:01:38;;;;;;;15.73;5.72;;;;;;;;;;5122482;27;20537;-63
2022/06/15 07:04:05;;;;;;;11.02;4.50;;;;;;;;;;5103563;28;20039;-63
2022/06/15 07:06:31;;;;;;;12.57;4.22;;;;;;;;;;5096947;28;20050;-63
2022/06/15 07:08:57;;;;;;;13.75;4.90;;;;;;;;;;5103717;28;20062;-64
2022/06/15 07:11:24;;;;;;;12.43;4.63;;;;;;;;;;5095430;28;20057;-63
2022/06/15 07:13:50;;;;;;;8.70;5.15;;;;;;;;;;5100757;28;20073;-63
2022/06/15 07:16:18;;;;;;;13.52;4.78;;;;;;;;;;5104510;28;20052;-64
2022/06/15 07:18:46;;;;;;;12.63;4.57;;;;;;;;;;5093402;28;20519;-63
2022/06/15 07:21:14;;;;;;;10.70;4.93;;;;;;;;;;5101665;28;20122;-64
2022/06/15 07:23:41;;;;;;;9.73;4.78;;;;;;;;;;5101656;28;20096;-64
2022/06/15 07:26:10;;;;;;;13.05;4.53;;;;;;;;;;5100461;28;20449;-64
2022/06/15 07:28:36;;;;;;;10.27;4.30;;;;;;;;;;5102727;27;20154;-64
2022/06/15 07:31:02;;;;;;;14.95;4.63;;;;;;;;;;5100687;28;20032;-63
2022/06/15 07:33:29;;;;;;;13.40;4.72;;;;;;;;;;5103894;28;20396;-63
2022/06/15 07:35:55;;;;;;;12.75;4.47;;;;;;;;;;5099344;28;20032;-64
2022/06/15 07:38:21;;;;;;;9.40;3.75;;;;;;;;;;5098646;28;20112;-64
2022/06/15 07:40:48;;;;;;;9.05;3.40;;;;;;;;;;5100143;28;20058;-63
2022/06/15 07:43:14;;;;;;;8.30;3.47;;;;;;;;;;5100202;28;20039;-63
2022/06/15 07:45:40;;;;;;;8.98;3.25;;;;;;;;;;5095294;28;20040;-64
2022/06/15 07:50:52;;;;;;;12.07;3.42;;;;;;;;;;5096619;28;20529;-63
2022/06/15 07:53:18;;;;;;;9.45;2.95;;;;;;;;;;5095138;28;20031;-64
2022/06/15 07:55:46;;;;;;;8.10;3.08;;;;;;;;;;5097330;28;20439;-64
2022/06/15 07:58:13;;;;;;;8.98;3.42;;;;;;;;;;5101786;28;20052;-64
2022/06/15 08:00:40;;;;;;;10.43;3.42;;;;;;;;;;5103255;28;20742;-63
2022/06/15 08:03:07;;;;;;;8.70;3.25;;;;;;;;;;5098016;28;20077;-64
2022/06/15 08:05:35;;;;;;;8.50;3.17;;;;;;;;;;5100270;28;20072;-62
2022/06/15 08:08:03;;;;;;;7.68;2.83;;;;;;;;;;5103867;28;20058;-64
2022/06/15 08:10:29;;;;;;;6.63;2.95;;;;;;;;;;5101889;28;20092;-64
2022/06/15 08:12:55;;;;;;;9.43;3.30;;;;;;;;;;5103914;28;20040;-64
2022/06/15 08:15:22;;;;;;;8.27;2.80;;;;;;;;;;5105096;28;20399;-64
2022/06/15 08:17:50;;;;;;;6.03;2.65;;;;;;;;;;5105647;28;20471;-64
2022/06/15 08:20:23;;;;;;;5.32;2.15;;;;;;;;;;5105631;28;20122;-64
2022/06/15 08:22:51;;;;;;;5.63;1.90;;;;;;;;;;5104753;28;20044;-64
2022/06/15 08:25:20;;;;;;;9.40;2.03;;;;;;;;;;5108523;28;20071;-64
2022/06/15 08:27:46;;;;;;;8.20;2.53;;;;;;;;;;5104081;28;20159;-64
2022/06/15 08:30:13;;;;;;;15.13;2.25;;;;;;;;;;5103297;28;20035;-64
2022/06/15 08:32:40;;;;;;;8.05;2.35;;;;;;;;;;5102935;28;20035;-66
2022/06/15 08:35:06;;;;;;;9.77;3.10;;;;;;;;;;5101151;28;20145;-64
2022/06/15 08:37:33;;;;;;;9.10;2.00;;;;;;;;;;5095868;28;20135;-63
2022/06/15 08:40:00;;;;;;;6.80;2.53;;;;;;;;;;5099551;28;20086;-64
2022/06/15 08:42:38;;;;;;;8.30;3.22;;;;;;;;;;5091189;28;20436;-64
2022/06/15 08:45:08;;;;;;;7.40;2.60;;;;;;;;;;5094458;28;20510;-64
2022/06/15 08:47:37;;;;;;;11.18;2.40;;;;;;;;;;5091135;28;20052;-64
2022/06/15 08:50:08;;;;;;;7.72;2.60;;;;;;;;;;5097706;28;20050;-64
2022/06/15 08:52:41;;;;;;;7.88;2.40;;;;;;;;;;5097464;28;20052;-64
2022/06/15 08:55:16;;;;;;;6.80;2.70;;;;;;;;;;5099310;28;20048;-64
2022/06/15 08:57:50;;;;;;;5.72;2.25;;;;;;;;;;5104721;28;20043;-64
2022/06/15 09:00:19;;;;;;;7.35;2.83;;;;;;;;;;5122713;27;20055;-64
2022/06/15 09:02:54;;;;;;;10.35;2.80;;;;;;;;;;5105389;28;20042;-64
2022/06/15 09:05:22;;;;;;;8.55;3.30;;;;;;;;;;5103943;28;20122;-64
2022/06/15 09:07:52;;;;;;;10.98;2.22;;;;;;;;;;5107165;28;20047;-64
2022/06/15 09:10:27;;;;;;;6.28;1.77;;;;;;;;;;5104275;28;20597;-64
2022/06/15 09:13:02;;;;;;;6.82;2.10;;;;;;;;;;5106787;28;20341;-65
2022/06/15 09:15:31;;;;;;;9.07;2.35;;;;;;;;;;5105750;28;20515;-65
2022/06/15 09:17:59;;;;;;;10.40;2.10;;;;;;;;;;5106061;28;20048;-64
2022/06/15 09:20:29;;;;;;;8.30;2.25;;;;;;;;;;5104173;28;20085;-64
2022/06/15 09:22:56;;;;;;;7.90;2.88;;;;;;;;;;5107779;28;20130;-65
2022/06/15 09:25:23;;;;;;;8.82;2.88;;;;;;;;;;5104154;28;20039;-65
2022/06/15 09:27:54;;;;;;;7.40;2.75;;;;;;;;;;5101965;28;20118;-65
2022/06/15 09:30:23;;;;;;;6.22;2.78;;;;;;;;;;5098136;28;20068;-65
2022/06/15 09:32:52;;;;;;;9.18;3.22;;;;;;;;;;5105373;28;20391;-65
2022/06/15 09:35:25;;;;;;;8.25;2.70;;;;;;;;;;5105362;28;20474;-65
2022/06/15 09:37:52;;;;;;;8.98;3.15;;;;;;;;;;5100926;28;20170;-65
2022/06/15 09:40:19;;;;;;;8.40;3.08;;;;;;;;;;5104857;28;20047;-64
2022/06/15 09:42:46;;;;;;;7.70;2.92;;;;;;;;;;5105824;28;20039;-65
2022/06/15 09:45:21;;;;;;;10.00;2.83;;;;;;;;;;5106511;28;20531;-64
2022/06/15 09:47:58;;;;;;;10.77;2.80;;;;;;;;;;5086670;28;20498;-64
2022/06/15 09:50:26;;;;;;;9.70;3.60;;;;;;;;;;5081303;28;20095;-65
2022/06/15 09:52:57;;;;;;;6.90;3.17;;;;;;;;;;5075715;28;20046;-64
2022/06/15 09:55:35;;;;;;;8.30;3.25;;;;;;;;;;5080584;28;20090;-65
2022/06/15 09:58:02;;;;;;;9.88;3.22;;;;;;;;;;5081523;28;20044;-64
2022/06/15 10:00:29;;;;;;;7.15;2.70;;;;;;;;;;5077464;28;20040;-64
2022/06/15 10:02:59;;;;;;;6.45;2.72;;;;;;;;;;5066799;28;20051;-64
2022/06/15 10:05:30;;;;;;;8.63;3.75;;;;;;;;;;5086221;28;20383;-64
2022/06/15 10:07:58;;;;;;;11.57;3.40;;;;;;;;;;5081658;28;20060;-64
2022/06/15 10:10:29;;;;;;;8.68;3.28;;;;;;;;;;5084918;28;20424;-65
2022/06/15 10:12:59;;;;;;;8.80;2.97;;;;;;;;;;5078489;28;20040;-64
2022/06/15 10:15:51;;;;;;;11.35;3.38;;;;;;;;;;5083740;28;20046;-65
2022/06/15 10:18:20;;;;;;;12.57;3.20;;;;;;;;;;5066418;28;20052;-65
2022/06/15 10:21:03;;;;;;;12.20;2.78;;;;;;;;;;5084223;28;20040;-64
2022/06/15 10:23:32;;;;;;;9.50;2.95;;;;;;;;;;5085588;28;20571;-65
2022/06/15 10:25:58;;;;;;;8.25;3.30;;;;;;;;;;5066807;28;20114;-65
2022/06/15 10:28:32;;;;;;;6.82;2.80;;;;;;;;;;5084190;28;20476;-65
2022/06/15 10:31:00;;;;;;;8.95;2.88;;;;;;;;;;5087033;28;20499;-65
2022/06/15 10:33:38;;;;;;;10.88;3.20;;;;;;;;;;5081745;28;20488;-65
2022/06/15 10:36:16;;;;;;;6.88;2.90;;;;;;;;;;5084906;28;20051;-65
2022/06/15 10:38:42;;;;;;;7.22;2.85;;;;;;;;;;5065175;28;20070;-65
2022/06/15 10:43:53;;;;;;;8.95;2.70;;;;;;;;;;5084588;28;20044;-65
2022/06/15 10:46:21;;;;;;;7.40;2.90;;;;;;;;;;5086647;28;20139;-65
2022/06/15 10:48:50;;;;;;;7.68;3.00;;;;;;;;;;5085254;28;20475;-65
2022/06/15 10:51:18;;;;;;;8.88;3.08;;;;;;;;;;5105668;28;20035;-65
2022/06/15 10:53:44;;;;;;;8.25;2.83;;;;;;;;;;5100138;28;20048;-65
2022/06/15 11:02:07;;;;;;;7.15;3.13;;;;;;;;;;5081073;28;20157;-65
2022/06/15 11:04:36;;;;;;;7.30;2.80;;;;;;;;;;5102951;28;20055;-65
2022/06/15 11:07:06;;;;;;;8.13;2.53;;;;;;;;;;5097752;28;20047;-65
2022/06/15 11:09:36;;;;;;;9.90;3.10;;;;;;;;;;5099697;28;20115;-64
2022/06/15 11:12:06;;;;;;;6.82;3.15;;;;;;;;;;5086318;28;20052;-64
2022/06/15 11:14:35;;;;;;;8.27;2.92;;;;;;;;;;5102381;28;20144;-65
2022/06/15 11:20:03;;;;;;;10.68;3.28;;;;;;;;;;5104320;28;21451;-65
2022/06/15 11:22:30;;;;;;;7.13;2.80;;;;;;;;;;5081701;28;20118;-65
2022/06/15 11:25:02;;;;;;;7.78;2.90;;;;;;;;;;5106357;28;20119;-65
2022/06/15 11:27:30;;;;;;;8.85;2.63;;;;;;;;;;5103197;28;20173;-65
2022/06/15 11:30:00;;;;;;;6.97;2.95;;;;;;;;;;5103533;28;20044;-65
2022/06/15 11:32:32;;;;;;;7.25;2.65;;;;;;;;;;5105640;28;20098;-65
2022/06/15 11:34:58;;;;;;;10.47;3.10;;;;;;;;;;5103759;28;20102;-65
2022/06/15 11:37:27;;;;;;;7.93;2.65;;;;;;;;;;5106928;28;20313;-65
2022/06/15 11:39:56;;;;;;;10.30;3.45;;;;;;;;;;5081376;28;20043;-65
2022/06/15 11:42:23;;;;;;;4.40;2.20;;;;;;;;;;5083181;28;20542;-64
2022/06/15 11:44:50;;;;;;;7.68;2.50;;;;;;;;;;5101291;28;20119;-64
2022/06/15 11:47:34;;;;;;;5.35;2.05;;;;;;;;;;5102268;28;20056;-64
2022/06/15 11:50:07;;;;;;;7.38;2.45;;;;;;;;;;5101464;28;20044;-64
2022/06/15 11:52:33;;;;;;;;;;;;;;;;;;5103352;28;20404;-64
2022/06/15 11:55:08;;;;;;;6.50;2.13;;;;;;;;;;5092601;28;20339;-64
2022/06/15 11:57:35;;;;;;;6.78;2.50;;;;;;;;;;5091840;28;20777;-64
2022/06/15 12:00:10;;;;;;;9.40;3.00;;;;;;;;;;5100280;28;20556;-64
2022/06/15 12:02:46;;;;;;;8.48;2.28;;;;;;;;;;5108309;28;20082;-64
2022/06/15 12:05:22;;;;;;;5.78;2.53;;;;;;;;;;5092871;28;20043;-64
2022/06/15 12:08:01;;;;;;;5.60;2.25;;;;;;;;;;5092440;28;20048;-64
2022/06/15 12:10:38;;;;;;;6.03;2.58;;;;;;;;;;5092413;28;20097;-64
2022/06/15 12:13:16;;;;;;;7.28;2.20;;;;;;;;;;5098902;28;20043;-64
2022/06/15 12:15:51;;;;;;;6.70;2.50;;;;;;;;;;5112865;28;20092;-64
2022/06/15 12:18:31;;;;;;;7.47;2.55;;;;;;;;;;5112534;28;20043;-64
2022/06/15 12:21:07;;;;;;;5.70;2.20;;;;;;;;;;5112698;28;20489;-64
2022/06/15 12:23:40;;;;;;;5.95;2.72;;;;;;;;;;5103728;28;20556;-64
2022/06/15 12:26:16;;;;;;;6.57;2.50;;;;;;;;;;5112001;28;20472;-64
2022/06/15 12:28:48;;;;;;;6.85;2.45;;;;;;;;;;5112289;28;20126;-65
2022/06/15 12:31:16;;;;;;;7.57;2.85;;;;;;;;;;5112454;28;20059;-64
2022/06/15 12:34:00;;;;;;;7.80;2.55;;;;;;;;;;5103785;28;20454;-64
2022/06/15 12:36:31;;;;;;;8.25;2.97;;;;;;;;;;5094491;28;20461;-65
2022/06/15 12:39:15;;;;;;;7.10;2.35;;;;;;;;;;5112422;28;20043;-64
2022/06/15 12:44:34;;;;;;;6.35;2.40;;;;;;;;;;5093567;28;20130;-65
2022/06/15 12:47:01;;;;;;;6.63;2.42;;;;;;;;;;5111194;28;20513;-64
2022/06/15 12:49:29;;;;;;;6.25;2.15;;;;;;;;;;5112323;28;20044;-64
2022/06/15 12:51:59;;;;;;;6.60;2.33;;;;;;;;;;5112169;28;20043;-65
2022/06/15 12:54:34;;;;;;;7.55;2.83;;;;;;;;;;5092973;28;20452;-64
2022/06/15 12:57:08;;;;;;;8.32;2.75;;;;;;;;;;5098169;28;20126;-64
2022/06/15 12:59:43;;;;;;;7.45;2.47;;;;;;;;;;5075240;28;20052;-64
2022/06/15 13:02:19;;;;;;;7.93;2.22;;;;;;;;;;5091530;28;20063;-64
2022/06/15 13:04:46;;;;;;;6.00;2.88;;;;;;;;;;5081381;28;20047;-64
2022/06/15 13:07:18;;;;;;;7.72;2.58;;;;;;;;;;5082675;28;20040;-64
2022/06/15 13:10:03;;;;;;;5.28;2.08;;;;;;;;;;5084683;28;20043;-64
2022/06/15 13:12:35;;;;;;;6.18;2.50;;;;;;;;;;5085500;28;20047;-64
2022/06/15 13:15:01;;;;;;;5.78;2.25;;;;;;;;;;5101907;28;20391;-64
2022/06/15 13:17:29;;;;;;;6.10;2.63;;;;;;;;;;5106916;28;20039;-64
2022/06/15 13:20:06;;;;;;;9.15;2.63;;;;;;;;;;5104766;28;20487;-64
2022/06/15 13:22:38;;;;;;;4.85;1.95;;;;;;;;;;5099303;28;20388;-64
2022/06/15 13:25:04;;;;;;;7.28;2.20;;;;;;;;;;5107479;28;20043;-64
2022/06/15 13:27:40;;;;;;;6.75;2.20;;;;;;;;;;5105507;28;20047;-64
2022/06/15 13:30:24;;;;;;;6.40;2.15;;;;;;;;;;5105858;28;20039;-64
2022/06/15 13:33:00;;;;;;;4.95;1.98;;;;;;;;;;5098543;28;20070;-64
2022/06/15 13:35:29;;;;;;;5.10;1.85;;;;;;;;;;5100225;28;20032;-64
2022/06/15 13:38:00;;;;;;;6.07;2.03;;;;;;;;;;5103914;28;20046;-64
2022/06/15 13:40:46;;;;;;;5.78;1.58;;;;;;;;;;5104105;28;20495;-64
2022/06/15 13:43:12;;;;;;;6.00;2.03;;;;;;;;;;5105977;28;20036;-64
2022/06/15 13:45:41;;;;;;;4.97;1.85;;;;;;;;;;5108732;28;20123;-64
2022/06/15 13:48:14;;;;;;;5.20;1.75;;;;;;;;;;5098774;28;20456;-64
2022/06/15 13:50:44;;;;;;;6.15;1.85;;;;;;;;;;5105304;28;20077;-64
2022/06/15 13:53:17;;;;;;;6.57;2.22;;;;;;;;;;5103974;28;20509;-64
2022/06/15 13:55:51;;;;;;;7.65;2.15;;;;;;;;;;5105597;28;20048;-64
2022/06/15 13:58:28;;;;;;;7.50;2.28;;;;;;;;;;5096888;28;20059;-64
2022/06/15 14:01:05;;;;;;;7.30;2.17;;;;;;;;;;5104581;28;20422;-64
2022/06/15 14:03:41;;;;;;;6.72;1.95;;;;;;;;;;5101077;28;20036;-64
2022/06/15 14:06:15;;;;;;;6.47;2.00;;;;;;;;;;5088894;28;20134;-64
2022/06/15 14:08:43;;;;;;;5.68;1.83;;;;;;;;;;5087515;28;20056;-64
2022/06/15 14:11:25;;;;;;;6.32;2.10;;;;;;;;;;5102802;28;20039;-64
2022/06/15 14:13:51;;;;;;;;;;;;;;;;;;5103472;28;20058;-64
2022/06/15 14:16:22;;;;;;;5.40;2.17;;;;;;;;;;5100869;28;19928;-64
2022/06/15 14:18:56;;;;;;;7.78;1.80;;;;;;;;;;5103064;28;20517;-64
2022/06/15 14:21:28;;;;;;;8.32;1.80;;;;;;;;;;5103813;28;20044;-64
2022/06/15 14:23:54;;;;;;;7.38;1.90;;;;;;;;;;5107712;28;20035;-64
2022/06/15 14:26:23;;;;;;;5.15;1.50;;;;;;;;;;5102015;28;20070;-64
2022/06/15 14:28:59;;;;;;;6.70;2.35;;;;;;;;;;5102111;28;20192;-63
2022/06/15 14:31:27;;;;;;;6.30;1.88;;;;;;;;;;5103729;28;20043;-63
2022/06/15 14:33:54;;;;;;;8.57;1.85;;;;;;;;;;5101972;28;20046;-63
2022/06/15 14:36:22;;;;;;;5.05;1.95;;;;;;;;;;5101032;28;20031;-63
2022/06/15 14:38:58;;;;;;;4.72;1.92;;;;;;;;;;5103543;28;20130;-63
2022/06/15 14:41:26;;;;;;;7.85;1.50;;;;;;;;;;5099156;28;20172;-63
2022/06/15 14:43:53;;;;;;;4.25;1.60;;;;;;;;;;5083547;28;20556;-63
2022/06/15 14:46:20;;;;;;;6.20;1.92;;;;;;;;;;5083840;28;20061;-63
2022/06/15 14:48:49;;;;;;;7.35;1.90;;;;;;;;;;5098014;28;20044;-63
2022/06/15 14:51:18;;;;;;;4.68;1.92;;;;;;;;;;5097091;28;20435;-64
2022/06/15 14:53:48;;;;;;;3.75;1.80;;;;;;;;;;5074496;28;20044;-63
2022/06/15 14:56:15;;;;;;;5.70;1.88;;;;;;;;;;5099124;28;20228;-63
2022/06/15 14:58:56;;;;;;;7.18;1.60;;;;;;;;;;5082904;28;20051;-63
2022/06/15 15:01:22;;;;;;;8.15;1.90;;;;;;;;;;5084079;28;20458;-63
2022/06/15 15:03:48;;;;;;;5.13;1.77;;;;;;;;;;5098374;28;20032;-63
2022/06/15 15:06:17;;;;;;;5.22;1.45;;;;;;;;;;5082037;28;20106;-63
2022/06/15 15:08:45;;;;;;;6.85;1.58;;;;;;;;;;5098778;28;20487;-64
2022/06/15 15:11:26;;;;;;;5.90;1.92;;;;;;;;;;5085202;28;20050;-63
2022/06/15 15:13:59;;;;;;;6.40;2.10;;;;;;;;;;5090328;28;20051;-64